sensor_id;sensor_type;location;lat;lon;timestamp;P1;durP1;ratioP1;P2;durP2;ratioP2
34896;SDS011;43407;51.828;-2.298;2023-03-14T00:00:31;2.75;;;0.88;;
34896;SDS011;43407;51.828;-2.298;2023-03-14T00:02:56;1.77;;;1.10;;
34896;SDS011;43407;51.828;-2.298;2023-03-14T00:05:22;3.47;;;0.93;;
34896;SDS011;43407;51.828;-2.298;2023-03-14T00:07:47;3.50;;;0.88;;
34896;SDS011;43407;51.828;-2.298;2023-03-14T00:10:14;1.05;;;0.70;;
34896;SDS011;43407;51.828;-2.298;2023-03-14T00:12:40;1.58;;;0.73;;
34896;SDS011;43407;51.828;-2.298;2023-03-14T00:15:06;2.83;;;0.80;;
34896;SDS011;43407;51.828;-2.298;2023-03-14T00:17:33;1.02;;;0.63;;
34896;SDS011;43407;51.828;-2.298;2023-03-14T00:19:59;0.82;;;0.55;;
34896;SDS011;43407;51.828;-2.298;2023-03-14T00:22:33;1.38;;;0.60;;
34896;SDS011;43407;51.828;-2.298;2023-03-14T00:25:01;1.15;;;1.05;;
34896;SDS011;43407;51.828;-2.298;2023-03-14T00:27:27;0.82;;;0.60;;
34896;SDS011;43407;51.828;-2.298;2023-03-14T00:29:52;1.35;;;0.80;;
34896;SDS011;43407;51.828;-2.298;2023-03-14T00:32:18;1.08;;;0.70;;
34896;SDS011;43407;51.828;-2.298;2023-03-14T00:34:44;1.45;;;0.80;;
34896;SDS011;43407;51.828;-2.298;2023-03-14T00:37:09;2.03;;;0.70;;
34896;SDS011;43407;51.828;-2.298;2023-03-14T00:39:34;0.82;;;0.80;;
34896;SDS011;43407;51.828;-2.298;2023-03-14T00:42:00;1.30;;;0.88;;
34896;SDS011;43407;51.828;-2.298;2023-03-14T00:44:25;2.10;;;1.00;;
34896;SDS011;43407;51.828;-2.298;2023-03-14T00:46:51;0.88;;;0.80;;
34896;SDS011;43407;51.828;-2.298;2023-03-14T00:49:16;3.50;;;1.13;;
34896;SDS011;43407;51.828;-2.298;2023-03-14T00:51:42;4.43;;;1.38;;
34896;SDS011;43407;51.828;-2.298;2023-03-14T00:54:07;3.30;;;0.95;;
34896;SDS011;43407;51.828;-2.298;2023-03-14T00:56:33;5.15;;;1.35;;
34896;SDS011;43407;51.828;-2.298;2023-03-14T00:58:58;4.80;;;1.20;;
34896;SDS011;43407;51.828;-2.298;2023-03-14T01:01:24;2.97;;;1.38;;
34896;SDS011;43407;51.828;-2.298;2023-03-14T01:03:53;2.80;;;1.30;;
34896;SDS011;43407;51.828;-2.298;2023-03-14T01:06:21;4.82;;;1.40;;
34896;SDS011;43407;51.828;-2.298;2023-03-14T01:08:48;3.40;;;1.23;;
34896;SDS011;43407;51.828;-2.298;2023-03-14T01:11:18;4.93;;;1.23;;
34896;SDS011;43407;51.828;-2.298;2023-03-14T01:13:46;5.95;;;1.50;;
34896;SDS011;43407;51.828;-2.298;2023-03-14T01:16:12;4.60;;;1.10;;
34896;SDS011;43407;51.828;-2.298;2023-03-14T01:18:38;3.42;;;1.45;;
34896;SDS011;43407;51.828;-2.298;2023-03-14T01:21:10;4.75;;;1.60;;
34896;SDS011;43407;51.828;-2.298;2023-03-14T01:23:40;3.10;;;1.17;;
34896;SDS011;43407;51.828;-2.298;2023-03-14T01:26:08;1.95;;;0.90;;
34896;SDS011;43407;51.828;-2.298;2023-03-14T01:28:34;2.13;;;1.00;;
34896;SDS011;43407;51.828;-2.298;2023-03-14T01:31:04;4.13;;;1.00;;
34896;SDS011;43407;51.828;-2.298;2023-03-14T01:33:30;4.55;;;1.10;;
34896;SDS011;43407;51.828;-2.298;2023-03-14T01:35:56;3.55;;;1.08;;
34896;SDS011;43407;51.828;-2.298;2023-03-14T01:38:21;3.33;;;0.90;;
34896;SDS011;43407;51.828;-2.298;2023-03-14T01:40:47;2.70;;;1.35;;
34896;SDS011;43407;51.828;-2.298;2023-03-14T01:43:14;2.08;;;1.10;;
34896;SDS011;43407;51.828;-2.298;2023-03-14T01:54:05;4.82;;;1.35;;
34896;SDS011;43407;51.828;-2.298;2023-03-14T01:56:34;5.82;;;1.30;;
34896;SDS011;43407;51.828;-2.298;2023-03-14T01:59:00;3.58;;;1.33;;
34896;SDS011;43407;51.828;-2.298;2023-03-14T02:01:29;4.35;;;1.23;;
34896;SDS011;43407;51.828;-2.298;2023-03-14T02:03:55;5.20;;;1.55;;
34896;SDS011;43407;51.828;-2.298;2023-03-14T02:06:23;5.15;;;1.42;;
34896;SDS011;43407;51.828;-2.298;2023-03-14T02:08:50;5.70;;;1.60;;
34896;SDS011;43407;51.828;-2.298;2023-03-14T02:11:16;5.00;;;1.30;;
34896;SDS011;43407;51.828;-2.298;2023-03-14T02:13:43;8.77;;;1.80;;
34896;SDS011;43407;51.828;-2.298;2023-03-14T02:16:08;6.60;;;1.52;;
34896;SDS011;43407;51.828;-2.298;2023-03-14T02:18:34;8.23;;;1.67;;
34896;SDS011;43407;51.828;-2.298;2023-03-14T02:23:57;6.63;;;1.90;;
34896;SDS011;43407;51.828;-2.298;2023-03-14T02:26:32;9.15;;;1.77;;
34896;SDS011;43407;51.828;-2.298;2023-03-14T02:29:20;9.68;;;1.70;;
34896;SDS011;43407;51.828;-2.298;2023-03-14T02:31:46;8.20;;;1.88;;
34896;SDS011;43407;51.828;-2.298;2023-03-14T02:34:11;7.65;;;1.73;;
34896;SDS011;43407;51.828;-2.298;2023-03-14T02:36:37;7.70;;;1.52;;
34896;SDS011;43407;51.828;-2.298;2023-03-14T02:41:31;7.32;;;1.75;;
34896;SDS011;43407;51.828;-2.298;2023-03-14T02:43:57;8.20;;;1.80;;
34896;SDS011;43407;51.828;-2.298;2023-03-14T02:46:22;7.60;;;1.60;;
34896;SDS011;43407;51.828;-2.298;2023-03-14T02:48:50;9.00;;;1.60;;
34896;SDS011;43407;51.828;-2.298;2023-03-14T02:51:19;3.88;;;1.50;;
34896;SDS011;43407;51.828;-2.298;2023-03-14T02:53:45;5.03;;;1.40;;
34896;SDS011;43407;51.828;-2.298;2023-03-14T02:56:10;7.15;;;1.80;;
34896;SDS011;43407;51.828;-2.298;2023-03-14T02:58:36;6.57;;;1.20;;
34896;SDS011;43407;51.828;-2.298;2023-03-14T03:01:02;4.15;;;1.60;;
34896;SDS011;43407;51.828;-2.298;2023-03-14T03:03:28;4.35;;;1.38;;
34896;SDS011;43407;51.828;-2.298;2023-03-14T03:05:54;4.30;;;1.40;;
34896;SDS011;43407;51.828;-2.298;2023-03-14T03:08:21;5.38;;;1.67;;
34896;SDS011;43407;51.828;-2.298;2023-03-14T03:10:48;3.88;;;1.30;;
34896;SDS011;43407;51.828;-2.298;2023-03-14T03:13:14;7.05;;;1.60;;
34896;SDS011;43407;51.828;-2.298;2023-03-14T03:15:40;6.93;;;1.60;;
34896;SDS011;43407;51.828;-2.298;2023-03-14T03:18:05;6.20;;;1.52;;
34896;SDS011;43407;51.828;-2.298;2023-03-14T03:20:31;11.10;;;1.60;;
34896;SDS011;43407;51.828;-2.298;2023-03-14T03:22:58;5.07;;;1.67;;
34896;SDS011;43407;51.828;-2.298;2023-03-14T03:25:24;6.35;;;1.52;;
34896;SDS011;43407;51.828;-2.298;2023-03-14T03:27:49;6.70;;;1.58;;
34896;SDS011;43407;51.828;-2.298;2023-03-14T03:30:15;3.97;;;1.42;;
34896;SDS011;43407;51.828;-2.298;2023-03-14T03:32:40;4.47;;;1.55;;
34896;SDS011;43407;51.828;-2.298;2023-03-14T03:35:06;8.95;;;1.77;;
34896;SDS011;43407;51.828;-2.298;2023-03-14T03:37:32;5.68;;;1.85;;
34896;SDS011;43407;51.828;-2.298;2023-03-14T03:39:58;7.13;;;1.40;;
34896;SDS011;43407;51.828;-2.298;2023-03-14T03:42:26;5.93;;;1.50;;
34896;SDS011;43407;51.828;-2.298;2023-03-14T03:44:52;5.38;;;1.80;;
34896;SDS011;43407;51.828;-2.298;2023-03-14T03:47:17;6.20;;;1.65;;
34896;SDS011;43407;51.828;-2.298;2023-03-14T03:49:42;8.93;;;1.55;;
34896;SDS011;43407;51.828;-2.298;2023-03-14T03:52:08;6.65;;;1.33;;
34896;SDS011;43407;51.828;-2.298;2023-03-14T03:54:34;5.00;;;1.48;;
34896;SDS011;43407;51.828;-2.298;2023-03-14T03:57:00;6.88;;;1.65;;
34896;SDS011;43407;51.828;-2.298;2023-03-14T03:59:25;7.28;;;1.75;;
34896;SDS011;43407;51.828;-2.298;2023-03-14T04:01:51;3.85;;;1.20;;
34896;SDS011;43407;51.828;-2.298;2023-03-14T04:04:16;5.60;;;1.65;;
34896;SDS011;43407;51.828;-2.298;2023-03-14T04:06:42;11.05;;;1.60;;
34896;SDS011;43407;51.828;-2.298;2023-03-14T04:09:11;6.03;;;1.25;;
34896;SDS011;43407;51.828;-2.298;2023-03-14T04:11:36;5.97;;;1.40;;
34896;SDS011;43407;51.828;-2.298;2023-03-14T04:14:02;4.60;;;1.42;;
34896;SDS011;43407;51.828;-2.298;2023-03-14T04:16:28;5.75;;;1.40;;
34896;SDS011;43407;51.828;-2.298;2023-03-14T04:18:56;7.72;;;1.92;;
34896;SDS011;43407;51.828;-2.298;2023-03-14T04:21:22;5.38;;;1.38;;
34896;SDS011;43407;51.828;-2.298;2023-03-14T04:23:47;6.60;;;1.67;;
34896;SDS011;43407;51.828;-2.298;2023-03-14T04:26:13;6.05;;;1.40;;
34896;SDS011;43407;51.828;-2.298;2023-03-14T04:28:38;5.53;;;1.20;;
34896;SDS011;43407;51.828;-2.298;2023-03-14T04:31:11;5.30;;;1.10;;
34896;SDS011;43407;51.828;-2.298;2023-03-14T04:33:38;6.90;;;1.40;;
34896;SDS011;43407;51.828;-2.298;2023-03-14T04:36:06;4.45;;;1.23;;
34896;SDS011;43407;51.828;-2.298;2023-03-14T04:38:32;4.53;;;1.30;;
34896;SDS011;43407;51.828;-2.298;2023-03-14T04:40:58;5.60;;;1.10;;
34896;SDS011;43407;51.828;-2.298;2023-03-14T04:43:24;3.80;;;1.40;;
34896;SDS011;43407;51.828;-2.298;2023-03-14T04:45:51;4.10;;;1.10;;
34896;SDS011;43407;51.828;-2.298;2023-03-14T04:48:19;2.97;;;1.20;;
34896;SDS011;43407;51.828;-2.298;2023-03-14T04:50:45;5.30;;;1.08;;
34896;SDS011;43407;51.828;-2.298;2023-03-14T04:53:11;6.13;;;1.25;;
34896;SDS011;43407;51.828;-2.298;2023-03-14T04:55:37;3.33;;;1.17;;
34896;SDS011;43407;51.828;-2.298;2023-03-14T04:58:03;2.83;;;0.90;;
34896;SDS011;43407;51.828;-2.298;2023-03-14T05:00:28;2.90;;;1.02;;
34896;SDS011;43407;51.828;-2.298;2023-03-14T05:02:54;4.00;;;1.30;;
34896;SDS011;43407;51.828;-2.298;2023-03-14T05:05:20;4.47;;;1.25;;
34896;SDS011;43407;51.828;-2.298;2023-03-14T05:07:45;3.40;;;1.15;;
34896;SDS011;43407;51.828;-2.298;2023-03-14T05:10:11;8.57;;;1.30;;
34896;SDS011;43407;51.828;-2.298;2023-03-14T05:12:37;6.65;;;1.35;;
34896;SDS011;43407;51.828;-2.298;2023-03-14T05:15:02;4.57;;;1.40;;
34896;SDS011;43407;51.828;-2.298;2023-03-14T05:17:29;9.48;;;1.67;;
34896;SDS011;43407;51.828;-2.298;2023-03-14T05:19:55;4.80;;;1.40;;
34896;SDS011;43407;51.828;-2.298;2023-03-14T05:22:20;4.25;;;1.00;;
34896;SDS011;43407;51.828;-2.298;2023-03-14T05:24:46;4.45;;;1.20;;
34896;SDS011;43407;51.828;-2.298;2023-03-14T05:27:11;4.05;;;1.13;;
34896;SDS011;43407;51.828;-2.298;2023-03-14T05:29:37;5.03;;;1.10;;
34896;SDS011;43407;51.828;-2.298;2023-03-14T05:32:02;7.00;;;1.50;;
34896;SDS011;43407;51.828;-2.298;2023-03-14T05:34:28;3.83;;;1.10;;
34896;SDS011;43407;51.828;-2.298;2023-03-14T05:36:53;3.38;;;1.25;;
34896;SDS011;43407;51.828;-2.298;2023-03-14T05:39:19;3.15;;;1.23;;
34896;SDS011;43407;51.828;-2.298;2023-03-14T05:41:45;2.92;;;1.02;;
34896;SDS011;43407;51.828;-2.298;2023-03-14T05:44:10;4.53;;;1.27;;
34896;SDS011;43407;51.828;-2.298;2023-03-14T05:46:36;2.53;;;1.25;;
34896;SDS011;43407;51.828;-2.298;2023-03-14T05:49:01;6.20;;;1.40;;
34896;SDS011;43407;51.828;-2.298;2023-03-14T05:51:27;6.05;;;1.77;;
34896;SDS011;43407;51.828;-2.298;2023-03-14T05:53:52;3.95;;;1.30;;
34896;SDS011;43407;51.828;-2.298;2023-03-14T05:56:18;6.60;;;1.15;;
34896;SDS011;43407;51.828;-2.298;2023-03-14T05:58:43;6.40;;;1.30;;
34896;SDS011;43407;51.828;-2.298;2023-03-14T06:01:09;3.47;;;1.10;;
34896;SDS011;43407;51.828;-2.298;2023-03-14T06:03:34;5.53;;;1.38;;
34896;SDS011;43407;51.828;-2.298;2023-03-14T06:06:00;3.13;;;1.30;;
34896;SDS011;43407;51.828;-2.298;2023-03-14T06:08:26;3.90;;;1.05;;
34896;SDS011;43407;51.828;-2.298;2023-03-14T06:10:52;3.15;;;1.23;;
34896;SDS011;43407;51.828;-2.298;2023-03-14T06:13:18;2.20;;;1.27;;
34896;SDS011;43407;51.828;-2.298;2023-03-14T06:15:44;4.15;;;1.17;;
34896;SDS011;43407;51.828;-2.298;2023-03-14T06:18:09;5.20;;;1.63;;
34896;SDS011;43407;51.828;-2.298;2023-03-14T06:20:38;4.40;;;1.30;;
34896;SDS011;43407;51.828;-2.298;2023-03-14T06:23:07;5.07;;;1.30;;
34896;SDS011;43407;51.828;-2.298;2023-03-14T06:25:33;6.47;;;1.30;;
34896;SDS011;43407;51.828;-2.298;2023-03-14T06:27:59;4.68;;;1.08;;
34896;SDS011;43407;51.828;-2.298;2023-03-14T06:30:25;2.40;;;0.95;;
34896;SDS011;43407;51.828;-2.298;2023-03-14T06:32:50;2.97;;;1.17;;
34896;SDS011;43407;51.828;-2.298;2023-03-14T06:35:16;2.72;;;1.27;;
34896;SDS011;43407;51.828;-2.298;2023-03-14T06:37:41;2.72;;;0.90;;
34896;SDS011;43407;51.828;-2.298;2023-03-14T06:40:08;1.40;;;0.90;;
34896;SDS011;43407;51.828;-2.298;2023-03-14T06:42:34;5.70;;;1.05;;
34896;SDS011;43407;51.828;-2.298;2023-03-14T06:45:00;3.47;;;1.30;;
34896;SDS011;43407;51.828;-2.298;2023-03-14T06:47:25;2.30;;;0.85;;
34896;SDS011;43407;51.828;-2.298;2023-03-14T06:49:51;2.00;;;1.10;;
34896;SDS011;43407;51.828;-2.298;2023-03-14T06:52:16;3.92;;;0.90;;
34896;SDS011;43407;51.828;-2.298;2023-03-14T06:54:42;2.15;;;1.00;;
34896;SDS011;43407;51.828;-2.298;2023-03-14T06:57:07;1.88;;;0.90;;
34896;SDS011;43407;51.828;-2.298;2023-03-14T06:59:33;1.80;;;1.10;;
34896;SDS011;43407;51.828;-2.298;2023-03-14T07:01:58;1.65;;;1.13;;
34896;SDS011;43407;51.828;-2.298;2023-03-14T07:04:24;2.67;;;1.05;;
34896;SDS011;43407;51.828;-2.298;2023-03-14T07:06:49;3.75;;;1.10;;
34896;SDS011;43407;51.828;-2.298;2023-03-14T07:09:15;1.30;;;0.82;;
34896;SDS011;43407;51.828;-2.298;2023-03-14T07:11:42;1.50;;;0.80;;
34896;SDS011;43407;51.828;-2.298;2023-03-14T07:14:07;2.55;;;1.02;;
34896;SDS011;43407;51.828;-2.298;2023-03-14T07:16:33;1.80;;;0.90;;
34896;SDS011;43407;51.828;-2.298;2023-03-14T07:18:59;3.80;;;1.40;;
34896;SDS011;43407;51.828;-2.298;2023-03-14T07:21:25;1.00;;;0.90;;
34896;SDS011;43407;51.828;-2.298;2023-03-14T07:23:51;1.48;;;0.88;;
34896;SDS011;43407;51.828;-2.298;2023-03-14T07:26:16;1.77;;;1.10;;
34896;SDS011;43407;51.828;-2.298;2023-03-14T07:28:42;1.08;;;0.88;;
34896;SDS011;43407;51.828;-2.298;2023-03-14T07:31:08;4.05;;;1.33;;
34896;SDS011;43407;51.828;-2.298;2023-03-14T07:33:33;3.75;;;1.10;;
34896;SDS011;43407;51.828;-2.298;2023-03-14T07:35:59;4.10;;;1.23;;
34896;SDS011;43407;51.828;-2.298;2023-03-14T07:38:25;2.85;;;1.00;;
34896;SDS011;43407;51.828;-2.298;2023-03-14T07:40:57;6.45;;;0.77;;
34896;SDS011;43407;51.828;-2.298;2023-03-14T07:43:26;3.05;;;1.00;;
34896;SDS011;43407;51.828;-2.298;2023-03-14T07:45:51;2.03;;;1.05;;
34896;SDS011;43407;51.828;-2.298;2023-03-14T07:48:17;1.25;;;0.82;;
34896;SDS011;43407;51.828;-2.298;2023-03-14T07:50:42;0.70;;;0.70;;
34896;SDS011;43407;51.828;-2.298;2023-03-14T07:53:08;1.77;;;0.80;;
34896;SDS011;43407;51.828;-2.298;2023-03-14T07:55:33;1.30;;;0.70;;
34896;SDS011;43407;51.828;-2.298;2023-03-14T07:57:59;1.42;;;0.88;;
34896;SDS011;43407;51.828;-2.298;2023-03-14T08:00:24;2.38;;;0.65;;
34896;SDS011;43407;51.828;-2.298;2023-03-14T08:02:50;0.63;;;0.60;;
34896;SDS011;43407;51.828;-2.298;2023-03-14T08:05:15;1.27;;;0.80;;
34896;SDS011;43407;51.828;-2.298;2023-03-14T08:07:41;0.95;;;0.80;;
34896;SDS011;43407;51.828;-2.298;2023-03-14T08:10:07;1.95;;;0.80;;
34896;SDS011;43407;51.828;-2.298;2023-03-14T08:12:33;1.15;;;0.80;;
34896;SDS011;43407;51.828;-2.298;2023-03-14T08:14:58;2.08;;;0.70;;
34896;SDS011;43407;51.828;-2.298;2023-03-14T08:17:24;1.60;;;0.68;;
34896;SDS011;43407;51.828;-2.298;2023-03-14T08:19:50;0.60;;;0.60;;
34896;SDS011;43407;51.828;-2.298;2023-03-14T08:22:15;0.75;;;0.75;;
34896;SDS011;43407;51.828;-2.298;2023-03-14T08:24:41;1.83;;;0.60;;
34896;SDS011;43407;51.828;-2.298;2023-03-14T08:27:06;0.73;;;0.65;;
34896;SDS011;43407;51.828;-2.298;2023-03-14T08:29:32;0.63;;;0.60;;
34896;SDS011;43407;51.828;-2.298;2023-03-14T08:31:58;2.13;;;0.60;;
34896;SDS011;43407;51.828;-2.298;2023-03-14T08:34:23;1.10;;;0.80;;
34896;SDS011;43407;51.828;-2.298;2023-03-14T08:36:48;0.82;;;0.63;;
34896;SDS011;43407;51.828;-2.298;2023-03-14T08:39:15;0.68;;;0.68;;
34896;SDS011;43407;51.828;-2.298;2023-03-14T08:41:40;1.08;;;1.02;;
34896;SDS011;43407;51.828;-2.298;2023-03-14T08:44:08;0.88;;;0.80;;
34896;SDS011;43407;51.828;-2.298;2023-03-14T08:46:33;0.80;;;0.80;;
34896;SDS011;43407;51.828;-2.298;2023-03-14T08:48:59;1.00;;;0.90;;
34896;SDS011;43407;51.828;-2.298;2023-03-14T08:51:24;0.90;;;0.90;;
34896;SDS011;43407;51.828;-2.298;2023-03-14T08:53:50;2.15;;;1.10;;
34896;SDS011;43407;51.828;-2.298;2023-03-14T08:56:15;1.15;;;1.10;;
34896;SDS011;43407;51.828;-2.298;2023-03-14T08:58:41;1.00;;;1.00;;
34896;SDS011;43407;51.828;-2.298;2023-03-14T09:01:10;1.20;;;0.90;;
34896;SDS011;43407;51.828;-2.298;2023-03-14T09:03:36;1.23;;;1.00;;
34896;SDS011;43407;51.828;-2.298;2023-03-14T09:06:03;1.42;;;1.02;;
34896;SDS011;43407;51.828;-2.298;2023-03-14T09:08:29;1.55;;;1.45;;
34896;SDS011;43407;51.828;-2.298;2023-03-14T09:10:55;1.20;;;1.10;;
34896;SDS011;43407;51.828;-2.298;2023-03-14T09:13:21;1.52;;;1.42;;
34896;SDS011;43407;51.828;-2.298;2023-03-14T09:15:50;1.88;;;1.48;;
34896;SDS011;43407;51.828;-2.298;2023-03-14T09:18:26;1.55;;;1.40;;
34896;SDS011;43407;51.828;-2.298;2023-03-14T09:20:51;1.40;;;1.30;;
34896;SDS011;43407;51.828;-2.298;2023-03-14T09:23:17;1.30;;;1.20;;
34896;SDS011;43407;51.828;-2.298;2023-03-14T09:25:42;1.17;;;1.17;;
34896;SDS011;43407;51.828;-2.298;2023-03-14T09:28:08;0.95;;;0.95;;
34896;SDS011;43407;51.828;-2.298;2023-03-14T09:30:33;0.82;;;0.82;;
34896;SDS011;43407;51.828;-2.298;2023-03-14T09:32:59;1.08;;;0.98;;
34896;SDS011;43407;51.828;-2.298;2023-03-14T09:35:24;1.77;;;1.00;;
34896;SDS011;43407;51.828;-2.298;2023-03-14T09:37:50;1.15;;;1.05;;
34896;SDS011;43407;51.828;-2.298;2023-03-14T09:40:16;1.27;;;1.17;;
34896;SDS011;43407;51.828;-2.298;2023-03-14T09:42:43;0.88;;;0.88;;
34896;SDS011;43407;51.828;-2.298;2023-03-14T09:45:10;0.85;;;0.80;;
34896;SDS011;43407;51.828;-2.298;2023-03-14T09:47:50;1.20;;;0.90;;
34896;SDS011;43407;51.828;-2.298;2023-03-14T09:50:17;1.05;;;0.90;;
34896;SDS011;43407;51.828;-2.298;2023-03-14T09:52:44;1.17;;;1.08;;
34896;SDS011;43407;51.828;-2.298;2023-03-14T09:55:15;1.80;;;1.00;;
34896;SDS011;43407;51.828;-2.298;2023-03-14T09:57:46;0.75;;;0.70;;
34896;SDS011;43407;51.828;-2.298;2023-03-14T10:00:17;1.10;;;1.00;;
34896;SDS011;43407;51.828;-2.298;2023-03-14T10:02:47;0.70;;;0.70;;
34896;SDS011;43407;51.828;-2.298;2023-03-14T10:05:17;1.92;;;0.77;;
34896;SDS011;43407;51.828;-2.298;2023-03-14T10:07:44;1.10;;;1.00;;
34896;SDS011;43407;51.828;-2.298;2023-03-14T10:10:13;0.90;;;0.80;;
34896;SDS011;43407;51.828;-2.298;2023-03-14T10:12:54;1.55;;;0.98;;
34896;SDS011;43407;51.828;-2.298;2023-03-14T10:15:31;0.85;;;0.77;;
34896;SDS011;43407;51.828;-2.298;2023-03-14T10:17:59;1.08;;;0.90;;
34896;SDS011;43407;51.828;-2.298;2023-03-14T10:20:30;0.85;;;0.80;;
34896;SDS011;43407;51.828;-2.298;2023-03-14T10:23:23;1.73;;;0.90;;
34896;SDS011;43407;51.828;-2.298;2023-03-14T10:26:03;1.83;;;0.90;;
34896;SDS011;43407;51.828;-2.298;2023-03-14T10:28:39;1.42;;;1.10;;
34896;SDS011;43407;51.828;-2.298;2023-03-14T10:31:09;2.60;;;1.20;;
34896;SDS011;43407;51.828;-2.298;2023-03-14T10:33:35;2.10;;;1.17;;
34896;SDS011;43407;51.828;-2.298;2023-03-14T10:38:39;2.92;;;1.27;;
34896;SDS011;43407;51.828;-2.298;2023-03-14T10:44:03;1.85;;;1.30;;
34896;SDS011;43407;51.828;-2.298;2023-03-14T10:46:30;2.90;;;1.48;;
34896;SDS011;43407;51.828;-2.298;2023-03-14T10:48:56;1.67;;;1.20;;
34896;SDS011;43407;51.828;-2.298;2023-03-14T10:51:25;3.22;;;1.10;;
34896;SDS011;43407;51.828;-2.298;2023-03-14T10:53:59;2.65;;;1.13;;
34896;SDS011;43407;51.828;-2.298;2023-03-14T10:56:28;2.30;;;1.13;;
34896;SDS011;43407;51.828;-2.298;2023-03-14T10:58:59;2.65;;;1.00;;
34896;SDS011;43407;51.828;-2.298;2023-03-14T11:10:03;1.92;;;0.90;;
34896;SDS011;43407;51.828;-2.298;2023-03-14T11:15:25;2.00;;;1.10;;
34896;SDS011;43407;51.828;-2.298;2023-03-14T11:20:44;1.63;;;0.90;;
34896;SDS011;43407;51.828;-2.298;2023-03-14T11:29:12;2.03;;;1.00;;
34896;SDS011;43407;51.828;-2.298;2023-03-14T11:31:40;3.28;;;1.38;;
34896;SDS011;43407;51.828;-2.298;2023-03-14T11:40:00;6.97;;;2.08;;
34896;SDS011;43407;51.828;-2.298;2023-03-14T11:42:29;2.08;;;1.08;;
34896;SDS011;43407;51.828;-2.298;2023-03-14T11:44:56;2.13;;;1.20;;
34896;SDS011;43407;51.828;-2.298;2023-03-14T11:47:26;3.90;;;1.38;;
34896;SDS011;43407;51.828;-2.298;2023-03-14T11:52:58;2.38;;;0.90;;
34896;SDS011;43407;51.828;-2.298;2023-03-14T11:57:55;3.03;;;1.20;;
34896;SDS011;43407;51.828;-2.298;2023-03-14T12:00:23;3.42;;;1.25;;
34896;SDS011;43407;51.828;-2.298;2023-03-14T12:03:03;2.80;;;1.20;;
34896;SDS011;43407;51.828;-2.298;2023-03-14T12:08:38;1.52;;;0.98;;
34896;SDS011;43407;51.828;-2.298;2023-03-14T12:11:05;3.00;;;1.33;;
34896;SDS011;43407;51.828;-2.298;2023-03-14T12:13:51;3.83;;;1.08;;
34896;SDS011;43407;51.828;-2.298;2023-03-14T12:18:49;2.15;;;0.93;;
34896;SDS011;43407;51.828;-2.298;2023-03-14T12:21:18;1.55;;;1.00;;
34896;SDS011;43407;51.828;-2.298;2023-03-14T12:23:54;2.75;;;1.08;;
34896;SDS011;43407;51.828;-2.298;2023-03-14T12:44:44;3.00;;;0.90;;
34896;SDS011;43407;51.828;-2.298;2023-03-14T12:49:49;1.48;;;0.80;;
34896;SDS011;43407;51.828;-2.298;2023-03-14T12:52:21;4.78;;;1.00;;
34896;SDS011;43407;51.828;-2.298;2023-03-14T12:59:57;3.33;;;0.98;;
34896;SDS011;43407;51.828;-2.298;2023-03-14T13:02:25;2.97;;;0.98;;
34896;SDS011;43407;51.828;-2.298;2023-03-14T13:04:53;5.18;;;1.00;;
34896;SDS011;43407;51.828;-2.298;2023-03-14T13:07:31;1.70;;;0.98;;
34896;SDS011;43407;51.828;-2.298;2023-03-14T13:12:47;3.22;;;0.70;;
34896;SDS011;43407;51.828;-2.298;2023-03-14T13:15:17;1.58;;;0.90;;
34896;SDS011;43407;51.828;-2.298;2023-03-14T13:17:45;1.27;;;0.70;;
34896;SDS011;43407;51.828;-2.298;2023-03-14T13:20:12;2.38;;;1.02;;
34896;SDS011;43407;51.828;-2.298;2023-03-14T13:22:45;2.80;;;0.90;;
34896;SDS011;43407;51.828;-2.298;2023-03-14T13:25:12;1.27;;;0.88;;
34896;SDS011;43407;51.828;-2.298;2023-03-14T13:27:37;2.72;;;0.80;;
34896;SDS011;43407;51.828;-2.298;2023-03-14T13:30:16;2.00;;;0.70;;
34896;SDS011;43407;51.828;-2.298;2023-03-14T13:32:44;2.15;;;1.08;;
34896;SDS011;43407;51.828;-2.298;2023-03-14T13:35:20;3.75;;;0.90;;
34896;SDS011;43407;51.828;-2.298;2023-03-14T13:37:45;2.42;;;0.90;;
34896;SDS011;43407;51.828;-2.298;2023-03-14T13:40:18;2.33;;;0.93;;
34896;SDS011;43407;51.828;-2.298;2023-03-14T13:42:45;2.88;;;1.10;;
34896;SDS011;43407;51.828;-2.298;2023-03-14T13:45:13;1.65;;;0.82;;
34896;SDS011;43407;51.828;-2.298;2023-03-14T13:47:38;1.85;;;0.80;;
34896;SDS011;43407;51.828;-2.298;2023-03-14T13:50:04;3.92;;;1.20;;
34896;SDS011;43407;51.828;-2.298;2023-03-14T13:52:31;3.13;;;1.20;;
34896;SDS011;43407;51.828;-2.298;2023-03-14T13:55:00;4.43;;;1.20;;
34896;SDS011;43407;51.828;-2.298;2023-03-14T13:57:26;2.95;;;1.10;;
34896;SDS011;43407;51.828;-2.298;2023-03-14T14:00:02;1.83;;;0.90;;
34896;SDS011;43407;51.828;-2.298;2023-03-14T14:02:36;3.90;;;0.90;;
34896;SDS011;43407;51.828;-2.298;2023-03-14T14:05:03;2.70;;;0.95;;
34896;SDS011;43407;51.828;-2.298;2023-03-14T14:07:29;3.42;;;1.20;;
34896;SDS011;43407;51.828;-2.298;2023-03-14T14:09:55;3.25;;;1.15;;
34896;SDS011;43407;51.828;-2.298;2023-03-14T14:15:00;4.22;;;1.50;;
34896;SDS011;43407;51.828;-2.298;2023-03-14T14:20:05;2.67;;;1.20;;
34896;SDS011;43407;51.828;-2.298;2023-03-14T14:22:33;3.03;;;1.40;;
34896;SDS011;43407;51.828;-2.298;2023-03-14T14:24:59;2.65;;;1.00;;
34896;SDS011;43407;51.828;-2.298;2023-03-14T14:30:26;3.10;;;1.33;;
34896;SDS011;43407;51.828;-2.298;2023-03-14T14:32:52;4.05;;;1.38;;
34896;SDS011;43407;51.828;-2.298;2023-03-14T14:35:33;4.78;;;1.70;;
34896;SDS011;43407;51.828;-2.298;2023-03-14T14:37:59;4.70;;;1.10;;
34896;SDS011;43407;51.828;-2.298;2023-03-14T14:40:26;3.30;;;1.50;;
34896;SDS011;43407;51.828;-2.298;2023-03-14T14:42:53;3.45;;;1.00;;
34896;SDS011;43407;51.828;-2.298;2023-03-14T14:45:22;2.65;;;1.00;;
34896;SDS011;43407;51.828;-2.298;2023-03-14T14:50:27;3.85;;;1.05;;
34896;SDS011;43407;51.828;-2.298;2023-03-14T14:53:16;3.95;;;1.08;;
34896;SDS011;43407;51.828;-2.298;2023-03-14T14:55:49;3.80;;;1.20;;
34896;SDS011;43407;51.828;-2.298;2023-03-14T14:58:26;4.43;;;1.02;;
34896;SDS011;43407;51.828;-2.298;2023-03-14T15:03:41;2.35;;;0.90;;
34896;SDS011;43407;51.828;-2.298;2023-03-14T15:06:07;2.88;;;0.93;;
34896;SDS011;43407;51.828;-2.298;2023-03-14T15:08:33;2.47;;;0.88;;
34896;SDS011;43407;51.828;-2.298;2023-03-14T15:10:59;1.98;;;0.85;;
34896;SDS011;43407;51.828;-2.298;2023-03-14T15:13:24;2.63;;;1.30;;
34896;SDS011;43407;51.828;-2.298;2023-03-14T15:15:50;3.13;;;0.93;;
34896;SDS011;43407;51.828;-2.298;2023-03-14T15:18:23;3.85;;;1.00;;
34896;SDS011;43407;51.828;-2.298;2023-03-14T15:20:49;3.88;;;1.00;;
34896;SDS011;43407;51.828;-2.298;2023-03-14T15:23:16;1.25;;;0.80;;
34896;SDS011;43407;51.828;-2.298;2023-03-14T15:25:43;2.08;;;0.70;;
34896;SDS011;43407;51.828;-2.298;2023-03-14T15:28:14;1.15;;;0.70;;
34896;SDS011;43407;51.828;-2.298;2023-03-14T15:30:42;2.38;;;0.80;;
34896;SDS011;43407;51.828;-2.298;2023-03-14T15:33:07;2.88;;;0.90;;
34896;SDS011;43407;51.828;-2.298;2023-03-14T15:35:34;1.65;;;0.68;;
34896;SDS011;43407;51.828;-2.298;2023-03-14T15:38:02;2.63;;;0.80;;
34896;SDS011;43407;51.828;-2.298;2023-03-14T15:40:28;2.90;;;0.80;;
34896;SDS011;43407;51.828;-2.298;2023-03-14T15:42:54;3.42;;;1.10;;
34896;SDS011;43407;51.828;-2.298;2023-03-14T15:45:19;5.40;;;0.82;;
34896;SDS011;43407;51.828;-2.298;2023-03-14T15:47:45;1.27;;;0.70;;
34896;SDS011;43407;51.828;-2.298;2023-03-14T15:50:10;2.03;;;0.90;;
34896;SDS011;43407;51.828;-2.298;2023-03-14T15:52:36;1.45;;;0.70;;
34896;SDS011;43407;51.828;-2.298;2023-03-14T15:55:02;2.33;;;0.80;;
34896;SDS011;43407;51.828;-2.298;2023-03-14T15:57:27;4.07;;;1.10;;
34896;SDS011;43407;51.828;-2.298;2023-03-14T15:59:53;2.65;;;1.35;;
34896;SDS011;43407;51.828;-2.298;2023-03-14T16:02:18;1.45;;;0.73;;
34896;SDS011;43407;51.828;-2.298;2023-03-14T16:04:44;1.30;;;0.70;;
34896;SDS011;43407;51.828;-2.298;2023-03-14T16:07:10;2.05;;;0.70;;
34896;SDS011;43407;51.828;-2.298;2023-03-14T16:09:36;1.67;;;0.70;;
34896;SDS011;43407;51.828;-2.298;2023-03-14T16:12:01;1.85;;;0.60;;